Terminal Aerodrome Forecast
Issued by NWS Pittsburgh, PA

Current Version | Previous Version | Graphics & Text | Print | Product List | Glossary On
Versions: 1 2 3 4 5 6 7 8 9 10 11 12 13 14 15 16 17 18 19 20 21 22 23 24 25 26 27 28 29 30 31 32 33 34 35
000
FTUS41 KPBZ 280200 AAA
TAFPIT
TAF AMD
KPIT 280202Z 2802/2906 35012KT P6SM SCT025 BKN035
      TEMPO 2802/2804 -SHSN BKN025
     FM280400 32010KT P6SM BKN035
     FM281500 30008KT P6SM SCT035=

USA.gov is the U.S. government's official web portal to all federal, state and local government web resources and services.